createdAt,value
2022-11-14T00:01:52.772Z,3.45
2022-11-14T00:04:42.295Z,3.46
2022-11-14T00:07:35.213Z,3.49
2022-11-14T00:10:24.726Z,3.53
2022-11-14T00:13:14.394Z,3.57
2022-11-14T00:16:03.955Z,3.61
2022-11-14T00:18:53.416Z,3.65
2022-11-14T00:21:42.702Z,3.68
2022-11-14T00:24:32.018Z,3.70
2022-11-14T00:27:21.287Z,3.69
2022-11-14T00:30:11.978Z,3.66
2022-11-14T00:33:01.236Z,3.59
2022-11-14T00:35:58.031Z,3.53
2022-11-14T00:38:47.391Z,3.48
2022-11-14T00:41:36.829Z,3.45
2022-11-14T00:44:26.596Z,3.44
2022-11-14T00:47:16.029Z,3.41
2022-11-14T00:50:06.418Z,3.37
2022-11-14T00:52:56.319Z,3.36
2022-11-14T00:55:45.403Z,3.34
2022-11-14T00:58:35.086Z,3.33
2022-11-14T01:01:24.793Z,3.29
2022-11-14T01:04:14.410Z,3.23
2022-11-14T01:07:03.734Z,3.19
2022-11-14T01:09:53.277Z,3.14
2022-11-14T01:12:42.536Z,3.12
2022-11-14T01:15:31.800Z,3.11
2022-11-14T01:18:23.135Z,3.11
2022-11-14T01:21:14.259Z,3.12
2022-11-14T01:24:03.454Z,3.15
2022-11-14T01:26:55.489Z,3.19
2022-11-14T01:29:44.962Z,3.23
2022-11-14T01:32:34.331Z,3.27
2022-11-14T01:35:23.899Z,3.29
2022-11-14T01:38:16.040Z,3.30
2022-11-14T01:41:06.390Z,3.33
2022-11-14T01:43:55.490Z,3.35
2022-11-14T01:46:48.040Z,3.38
2022-11-14T01:49:42.692Z,3.41
2022-11-14T01:52:37.313Z,3.43
2022-11-14T01:55:27.399Z,3.45
2022-11-14T01:58:17.501Z,3.47
2022-11-14T02:01:07.008Z,3.49
2022-11-14T02:03:57.135Z,3.50
2022-11-14T02:06:47.667Z,3.52
2022-11-14T02:09:39.871Z,3.51
2022-11-14T02:12:29.080Z,3.53
2022-11-14T02:15:18.817Z,3.54
2022-11-14T02:18:08.798Z,3.56
2022-11-14T02:20:58.077Z,3.59
2022-11-14T02:23:47.449Z,3.63
2022-11-14T02:26:36.931Z,3.67
2022-11-14T02:29:26.356Z,3.71
2022-11-14T02:32:15.447Z,3.75
2022-11-14T02:35:04.593Z,3.79
2022-11-14T02:37:54.193Z,3.83
2022-11-14T02:40:43.489Z,3.86
2022-11-14T02:43:32.807Z,3.89
2022-11-14T02:46:21.857Z,3.91
2022-11-14T02:49:11.251Z,3.94
2022-11-14T02:52:00.721Z,3.95
2022-11-14T02:54:54.291Z,3.97
2022-11-14T02:57:43.961Z,4.00
2022-11-14T03:00:33.310Z,4.02
2022-11-14T03:03:22.374Z,4.04
2022-11-14T03:06:11.853Z,4.07
2022-11-14T03:09:00.893Z,4.09
2022-11-14T03:11:50.126Z,4.10
2022-11-14T03:14:39.746Z,4.11
2022-11-14T03:17:31.795Z,4.11
2022-11-14T03:20:21.796Z,4.13
2022-11-14T03:23:11.160Z,4.14
2022-11-14T03:26:04.308Z,4.14
2022-11-14T03:28:55.306Z,4.12
2022-11-14T03:31:44.490Z,4.14
2022-11-14T03:34:33.815Z,4.14
2022-11-14T03:37:23.403Z,4.15
2022-11-14T03:40:14.062Z,4.17
2022-11-14T03:43:03.736Z,4.17
2022-11-14T03:45:53.436Z,4.18
2022-11-14T03:48:43.017Z,4.18
2022-11-14T03:51:32.179Z,4.21
2022-11-14T03:54:21.603Z,4.24
2022-11-14T03:57:10.990Z,4.27
2022-11-14T04:00:00.446Z,4.29
2022-11-14T04:02:50.015Z,4.31
2022-11-14T04:05:39.290Z,4.33
2022-11-14T04:08:29.127Z,4.35
2022-11-14T04:11:18.661Z,4.38
2022-11-14T04:14:08.126Z,4.43
2022-11-14T04:16:57.414Z,4.47
2022-11-14T04:19:46.718Z,4.54
2022-11-14T04:22:36.190Z,4.60
2022-11-14T04:25:25.623Z,4.66
2022-11-14T04:28:15.442Z,4.70
2022-11-14T04:31:04.952Z,4.75
2022-11-14T04:33:54.277Z,4.76
2022-11-14T04:36:43.508Z,4.76
2022-11-14T04:39:32.540Z,4.75
2022-11-14T04:42:21.988Z,4.74
2022-11-14T04:45:12.482Z,4.69
2022-11-14T04:48:01.513Z,4.66
2022-11-14T04:50:51.177Z,4.67
2022-11-14T04:53:40.470Z,4.66
2022-11-14T04:56:29.633Z,4.64
2022-11-14T04:59:21.105Z,4.63
2022-11-14T05:02:10.586Z,4.62
2022-11-14T05:05:02.514Z,4.59
2022-11-14T05:07:51.642Z,4.56
2022-11-14T05:10:43.387Z,4.57
2022-11-14T05:13:32.686Z,4.58
2022-11-14T05:16:22.055Z,4.58
2022-11-14T05:19:11.279Z,4.60
2022-11-14T05:22:00.359Z,4.62
2022-11-14T05:24:49.349Z,4.63
2022-11-14T05:27:38.898Z,4.62
2022-11-14T05:30:28.355Z,4.62
2022-11-14T05:33:17.642Z,4.60
2022-11-14T05:36:08.826Z,4.58
2022-11-14T05:38:58.612Z,4.57
2022-11-14T05:41:47.750Z,4.58
2022-11-14T05:44:37.012Z,4.58
2022-11-14T05:47:26.433Z,4.60
2022-11-14T05:50:16.383Z,4.62
2022-11-14T05:53:06.341Z,4.65
2022-11-14T05:55:56.251Z,4.67
2022-11-14T05:58:45.682Z,4.69
2022-11-14T06:01:35.051Z,4.69
2022-11-14T06:04:24.913Z,4.67
2022-11-14T06:07:18.813Z,4.65
2022-11-14T06:10:10.142Z,4.60
2022-11-14T06:12:59.968Z,4.56
2022-11-14T06:15:50.196Z,4.51
2022-11-14T06:18:40.278Z,4.47
2022-11-14T06:21:29.443Z,4.41
2022-11-14T06:24:18.659Z,4.36
2022-11-14T06:27:07.673Z,4.31
2022-11-14T06:29:57.108Z,4.26
2022-11-14T06:32:46.252Z,4.22
2022-11-14T06:36:02.739Z,4.18
2022-11-14T06:38:52.034Z,4.14
2022-11-14T06:41:41.706Z,4.11
2022-11-14T06:44:31.377Z,4.09
2022-11-14T06:47:20.728Z,4.06
2022-11-14T06:50:11.189Z,4.01
2022-11-14T06:53:01.425Z,3.98
2022-11-14T06:56:01.532Z,3.97
2022-11-14T06:58:51.993Z,3.95
2022-11-14T07:01:41.546Z,3.96
2022-11-14T07:04:30.720Z,3.97
2022-11-14T07:07:20.012Z,3.97
2022-11-14T07:10:10.432Z,3.98
2022-11-14T07:12:59.549Z,3.99
2022-11-14T07:15:54.485Z,4.01
2022-11-14T07:18:43.750Z,4.04
2022-11-14T07:21:35.096Z,4.08
2022-11-14T07:24:24.255Z,4.11
2022-11-14T07:27:13.465Z,4.16
2022-11-14T07:30:02.541Z,4.21
2022-11-14T07:32:57.693Z,4.28
2022-11-14T07:35:47.188Z,4.37
2022-11-14T07:38:36.977Z,4.46
2022-11-14T07:41:26.630Z,4.56
2022-11-14T07:44:15.843Z,4.66
2022-11-14T07:47:05.181Z,4.77
2022-11-14T07:49:54.608Z,4.88
2022-11-14T07:52:43.893Z,4.99
2022-11-14T07:55:33.400Z,5.11
2022-11-14T07:58:22.791Z,5.21
2022-11-14T08:01:14.088Z,5.29
2022-11-14T08:04:03.969Z,5.33
2022-11-14T08:06:53.817Z,5.35
2022-11-14T08:09:43.241Z,5.35
2022-11-14T08:12:32.549Z,5.35
2022-11-14T08:15:21.882Z,5.34
2022-11-14T08:18:11.018Z,5.34
2022-11-14T08:21:00.508Z,5.34
2022-11-14T08:23:49.829Z,5.35
2022-11-14T08:26:39.695Z,5.37
2022-11-14T08:29:29.041Z,5.37
2022-11-14T08:32:18.401Z,5.39
2022-11-14T08:35:08.682Z,5.42
2022-11-14T08:37:58.477Z,5.46
2022-11-14T08:40:47.317Z,5.51
2022-11-14T08:43:36.698Z,5.60
2022-11-14T08:46:26.346Z,5.69
2022-11-14T08:49:15.957Z,5.77
2022-11-14T08:52:05.395Z,5.83
2022-11-14T08:54:54.704Z,5.87
2022-11-14T08:57:49.139Z,5.92
2022-11-14T09:00:38.982Z,6.00
2022-11-14T09:03:28.510Z,6.10
2022-11-14T09:06:17.524Z,6.22
2022-11-14T09:09:06.861Z,6.38
2022-11-14T09:11:56.086Z,6.56
2022-11-14T09:14:45.397Z,6.74
2022-11-14T09:17:35.340Z,6.93
2022-11-14T09:20:31.068Z,7.10
2022-11-14T09:23:23.012Z,7.30
2022-11-14T09:26:13.055Z,7.50
2022-11-14T09:29:02.725Z,7.61
2022-11-14T09:31:55.354Z,7.67
2022-11-14T09:34:45.605Z,7.71
2022-11-14T09:37:35.083Z,7.72
2022-11-14T09:40:24.600Z,7.69
2022-11-14T09:43:32.838Z,7.71
2022-11-14T09:46:27.244Z,7.70
2022-11-14T09:49:26.483Z,7.65
2022-11-14T09:52:27.692Z,7.61
2022-11-14T09:55:21.860Z,7.63
2022-11-14T09:58:18.490Z,7.59
2022-11-14T10:01:12.447Z,7.53
2022-11-14T10:04:11.062Z,7.50
2022-11-14T10:07:09.402Z,7.46
2022-11-14T10:10:12.029Z,7.44
2022-11-14T10:13:09.768Z,7.40
2022-11-14T10:16:04.699Z,7.40
2022-11-14T10:19:06.197Z,7.39
2022-11-14T10:22:13.097Z,7.35
2022-11-14T10:25:23.616Z,7.34
2022-11-14T10:28:29.865Z,7.32
2022-11-14T10:31:33.836Z,7.33
2022-11-14T10:34:31.487Z,7.37
2022-11-14T10:37:28.574Z,7.43
2022-11-14T10:40:23.992Z,7.51
2022-11-14T10:43:22.811Z,7.59
2022-11-14T10:46:18.414Z,7.69
2022-11-14T10:49:20.573Z,7.80
2022-11-14T10:52:14.906Z,7.96
2022-11-14T10:55:09.375Z,8.15
2022-11-14T10:57:59.077Z,8.32
2022-11-14T11:00:49.027Z,8.48
2022-11-14T11:03:45.537Z,8.63
2022-11-14T11:06:35.048Z,8.83
2022-11-14T11:09:45.900Z,9.06
2022-11-14T11:12:47.388Z,9.30
2022-11-14T11:15:43.064Z,9.47
2022-11-14T11:18:34.557Z,9.61
2022-11-14T11:21:25.439Z,9.72
2022-11-14T11:24:31.260Z,9.82
2022-11-14T11:27:27.004Z,9.94
2022-11-14T11:30:24.230Z,10.06
2022-11-14T11:33:24.381Z,10.21
2022-11-14T11:36:18.806Z,10.35
2022-11-14T11:39:11.036Z,10.46
2022-11-14T11:42:10.496Z,10.55
2022-11-14T11:45:03.507Z,10.63
2022-11-14T11:47:59.749Z,10.67
2022-11-14T11:50:50.756Z,10.71
2022-11-14T11:53:43.768Z,10.73
2022-11-14T11:56:34.925Z,10.72
2022-11-14T11:59:33.822Z,10.74
2022-11-14T12:02:26.986Z,10.72
2022-11-14T12:05:19.791Z,10.71
2022-11-14T12:08:21.036Z,10.68
2022-11-14T12:11:17.545Z,10.65
2022-11-14T12:14:42.425Z,10.62
2022-11-14T12:17:55.690Z,10.58
2022-11-14T12:21:12.345Z,10.53
2022-11-14T12:24:37.151Z,10.47
2022-11-14T12:27:42.999Z,10.42
2022-11-14T12:30:33.405Z,10.37
2022-11-14T12:33:27.749Z,10.30
2022-11-14T12:36:17.294Z,10.24
2022-11-14T12:39:07.018Z,10.17
2022-11-14T12:42:05.714Z,10.11
2022-11-14T12:44:55.204Z,10.06
2022-11-14T12:48:17.051Z,10.01
2022-11-14T12:51:28.128Z,9.98
2022-11-14T12:54:45.068Z,9.97
2022-11-14T12:57:49.673Z,9.96
2022-11-14T13:01:00.057Z,9.99
2022-11-14T13:04:06.555Z,10.03
2022-11-14T13:07:28.601Z,10.07
2022-11-14T13:10:31.154Z,10.12
2022-11-14T13:13:38.148Z,10.16
2022-11-14T13:16:49.660Z,10.20
2022-11-14T13:20:05.645Z,10.23
2022-11-14T13:22:55.114Z,10.25
2022-11-14T13:25:44.262Z,10.28
2022-11-14T13:28:51.526Z,10.32
2022-11-14T13:31:51.330Z,10.37
2022-11-14T13:34:47.085Z,10.41
2022-11-14T13:37:54.730Z,10.47
2022-11-14T13:40:51.845Z,10.52
2022-11-14T13:43:56.787Z,10.56
2022-11-14T13:47:05.423Z,10.60
2022-11-14T13:50:04.498Z,10.64
2022-11-14T13:52:54.306Z,10.68
2022-11-14T13:55:57.247Z,10.73
2022-11-14T13:59:32.574Z,10.79
2022-11-14T14:02:52.201Z,10.88
2022-11-14T14:06:05.124Z,10.95
2022-11-14T14:09:12.299Z,10.99
2022-11-14T14:12:18.331Z,10.94
2022-11-14T14:15:21.284Z,10.89
2022-11-14T14:18:19.646Z,10.85
2022-11-14T14:21:23.734Z,10.81
2022-11-14T14:24:26.174Z,10.73
2022-11-14T14:27:25.212Z,10.61
2022-11-14T14:30:17.688Z,10.47
2022-11-14T14:33:13.940Z,10.35
2022-11-14T14:36:03.735Z,10.24
2022-11-14T14:39:07.874Z,10.13
2022-11-14T14:41:58.806Z,10.04
2022-11-14T14:44:49.132Z,9.93
2022-11-14T14:47:41.925Z,9.85
2022-11-14T14:50:37.940Z,9.76
2022-11-14T14:53:30.971Z,9.67
2022-11-14T14:56:24.828Z,9.57
2022-11-14T14:59:23.773Z,9.45
2022-11-14T15:02:17.837Z,9.33
2022-11-14T15:05:08.688Z,9.22
2022-11-14T15:08:01.689Z,9.15
2022-11-14T15:10:51.625Z,9.09
2022-11-14T15:13:42.332Z,9.04
2022-11-14T15:16:32.496Z,9.00
2022-11-14T15:19:26.622Z,8.95
2022-11-14T15:22:30.152Z,8.91
2022-11-14T15:25:21.957Z,8.89
2022-11-14T15:28:20.727Z,8.86
2022-11-14T15:31:20.176Z,8.84
2022-11-14T15:34:26.190Z,8.81
2022-11-14T15:37:24.083Z,8.80
2022-11-14T15:40:22.610Z,8.79
2022-11-14T15:43:39.155Z,8.78
2022-11-14T15:46:37.770Z,8.77
2022-11-14T15:49:28.471Z,8.76
2022-11-14T15:52:24.449Z,8.75
2022-11-14T15:55:17.924Z,8.74
2022-11-14T15:58:27.753Z,8.73
2022-11-14T16:01:23.537Z,8.73
2022-11-14T16:04:18.366Z,8.74
2022-11-14T16:07:07.702Z,8.75
2022-11-14T16:09:56.664Z,8.76
2022-11-14T16:12:51.988Z,8.77
2022-11-14T16:15:42.035Z,8.78
2022-11-14T16:18:31.104Z,8.81
2022-11-14T16:21:21.047Z,8.84
2022-11-14T16:24:16.411Z,8.87
2022-11-14T16:27:06.563Z,8.92
2022-11-14T16:29:56.073Z,8.95
2022-11-14T16:32:47.356Z,8.99
2022-11-14T16:35:35.812Z,9.01
2022-11-14T16:38:25.006Z,9.03
2022-11-14T16:41:16.740Z,9.04
2022-11-14T16:44:06.307Z,9.05
2022-11-14T16:46:55.863Z,9.06
2022-11-14T16:49:44.971Z,9.09
2022-11-14T16:52:34.622Z,9.12
2022-11-14T16:55:25.855Z,9.15
2022-11-14T16:58:15.057Z,9.17
2022-11-14T17:01:06.608Z,9.19
2022-11-14T17:04:01.051Z,9.20
2022-11-14T17:06:50.608Z,9.21
2022-11-14T17:09:40.287Z,9.21
2022-11-14T17:12:29.719Z,9.21
2022-11-14T17:15:19.513Z,9.21
2022-11-14T17:18:09.537Z,9.20
2022-11-14T17:20:59.381Z,9.20
2022-11-14T17:23:48.470Z,9.19
2022-11-14T17:26:37.896Z,9.19
2022-11-14T17:29:27.240Z,9.19
2022-11-14T17:32:16.725Z,9.19
2022-11-14T17:35:06.586Z,9.19
2022-11-14T17:38:00.081Z,9.20
2022-11-14T17:40:49.880Z,9.20
2022-11-14T17:43:40.513Z,9.20
2022-11-14T17:46:30.401Z,9.22
2022-11-14T17:49:19.776Z,9.22
2022-11-14T17:52:09.009Z,9.22
2022-11-14T17:54:58.164Z,9.26
2022-11-14T17:57:47.353Z,9.32
2022-11-14T18:00:37.167Z,9.49
2022-11-14T18:03:27.553Z,9.69
2022-11-14T18:06:22.808Z,10.00
2022-11-14T18:09:14.477Z,10.38
2022-11-14T18:12:04.169Z,10.68
2022-11-14T18:14:53.462Z,10.87
2022-11-14T18:17:42.712Z,11.03
2022-11-14T18:20:31.677Z,11.19
2022-11-14T18:23:20.729Z,11.30
2022-11-14T18:26:14.691Z,11.38
2022-11-14T18:29:04.105Z,11.45
2022-11-14T18:31:53.278Z,11.49
2022-11-14T18:34:42.613Z,11.53
2022-11-14T18:37:32.711Z,11.55
2022-11-14T18:40:22.080Z,11.60
2022-11-14T18:43:11.485Z,11.63
2022-11-14T18:46:06.683Z,11.66
2022-11-14T18:48:57.950Z,11.68
2022-11-14T18:51:47.298Z,11.71
2022-11-14T18:54:37.931Z,11.72
2022-11-14T18:57:27.360Z,11.73
2022-11-14T19:00:17.923Z,11.77
2022-11-14T19:03:07.668Z,11.78
2022-11-14T19:05:57.076Z,11.79
2022-11-14T19:08:46.594Z,11.79
2022-11-14T19:11:53.851Z,11.79
2022-11-14T19:14:43.204Z,11.76
2022-11-14T19:17:32.417Z,11.73
2022-11-14T19:20:21.822Z,11.70
2022-11-14T19:23:11.013Z,11.70
2022-11-14T19:26:02.726Z,11.71
2022-11-14T19:28:52.775Z,11.69
2022-11-14T19:31:43.216Z,11.66
2022-11-14T19:34:32.333Z,11.61
2022-11-14T19:37:21.970Z,11.55
2022-11-14T19:40:13.708Z,11.51
2022-11-14T19:43:04.166Z,11.47
2022-11-14T19:45:53.632Z,11.41
2022-11-14T19:48:43.856Z,11.35
2022-11-14T19:51:33.859Z,11.28
2022-11-14T19:54:23.384Z,11.21
2022-11-14T19:57:12.395Z,11.16
2022-11-14T20:00:01.766Z,11.11
2022-11-14T20:02:50.827Z,11.07
2022-11-14T20:05:39.920Z,11.03
2022-11-14T20:08:29.561Z,10.98
2022-11-14T20:11:20.069Z,10.92
2022-11-14T20:14:11.320Z,10.88
2022-11-14T20:17:01.056Z,10.82
2022-11-14T20:19:51.995Z,10.76
2022-11-14T20:22:41.423Z,10.71
2022-11-14T20:25:31.180Z,10.65
2022-11-14T20:28:20.665Z,10.58
2022-11-14T20:31:13.248Z,10.49
2022-11-14T20:34:02.771Z,10.41
2022-11-14T20:40:02.037Z,10.22
2022-11-14T20:42:51.417Z,10.15
2022-11-14T20:45:41.375Z,10.11
2022-11-14T20:48:33.742Z,10.10
2022-11-14T20:51:25.395Z,10.08
2022-11-14T20:54:14.927Z,10.06
2022-11-14T20:57:04.240Z,10.05
2022-11-14T20:59:53.632Z,10.03
2022-11-14T21:02:42.720Z,10.00
2022-11-14T21:05:31.776Z,9.95
2022-11-14T21:08:21.322Z,9.91
2022-11-14T21:11:14.014Z,9.87
2022-11-14T21:14:04.339Z,9.87
2022-11-14T21:16:53.779Z,9.87
2022-11-14T21:19:43.425Z,9.85
2022-11-14T21:22:32.577Z,9.81
2022-11-14T21:25:21.898Z,9.75
2022-11-14T21:28:11.311Z,9.71
2022-11-14T21:31:01.263Z,9.66
2022-11-14T21:33:52.485Z,9.63
2022-11-14T21:36:46.652Z,9.65
2022-11-14T21:39:36.759Z,9.70
2022-11-14T21:42:26.845Z,9.71
2022-11-14T21:45:15.962Z,9.68
2022-11-14T21:48:05.832Z,9.66
2022-11-14T21:50:55.540Z,9.63
2022-11-14T21:53:46.396Z,9.60
2022-11-14T21:56:37.995Z,9.59
2022-11-14T21:59:29.106Z,9.59
2022-11-14T22:02:36.366Z,9.66
2022-11-14T22:05:25.343Z,9.77
2022-11-14T22:08:15.954Z,9.84
2022-11-14T22:11:05.071Z,9.93
2022-11-14T22:13:54.234Z,9.98
2022-11-14T22:16:43.580Z,10.01
2022-11-14T22:19:33.050Z,10.03
2022-11-14T22:22:22.206Z,10.04
2022-11-14T22:25:11.848Z,10.04
2022-11-14T22:28:00.914Z,10.02
2022-11-14T22:30:50.430Z,10.02
2022-11-14T22:33:45.572Z,10.02
2022-11-14T22:36:36.545Z,10.01
2022-11-14T22:39:25.703Z,10.02
2022-11-14T22:42:14.938Z,10.03
2022-11-14T22:45:04.648Z,10.06
2022-11-14T22:47:58.922Z,10.09
2022-11-14T22:50:48.148Z,10.24
2022-11-14T22:53:39.086Z,10.48
2022-11-14T22:56:29.860Z,10.61
2022-11-14T22:59:19.196Z,10.68
2022-11-14T23:02:08.315Z,10.73
2022-11-14T23:04:57.392Z,10.84
2022-11-14T23:07:47.071Z,10.96
2022-11-14T23:10:37.370Z,11.06
2022-11-14T23:13:26.716Z,11.16
2022-11-14T23:16:18.158Z,11.27
2022-11-14T23:19:07.494Z,11.38
2022-11-14T23:21:57.050Z,11.42
2022-11-14T23:24:45.968Z,11.50
2022-11-14T23:27:35.376Z,11.54
2022-11-14T23:30:24.669Z,11.54
2022-11-14T23:33:13.804Z,11.53
2022-11-14T23:36:03.114Z,11.63
2022-11-14T23:38:54.541Z,11.71
2022-11-14T23:41:42.473Z,11.77
2022-11-14T23:44:31.433Z,11.81
2022-11-14T23:47:20.613Z,11.83
2022-11-14T23:50:11.464Z,11.82
2022-11-14T23:53:01.001Z,11.82
2022-11-14T23:55:56.465Z,11.88
2022-11-14T23:58:45.990Z,11.98
